Time;durP1;ratioP1;P1;durP2;ratioP2;P2;SDS_P1;SDS_P2;PMS_P1;PMS_P2;Temp;Humidity;BMP_temperature;BMP_pressure;BME280_temperature;BME280_humidity;BME280_pressure;Samples;Min_cycle;Max_cycle;Signal;HPM_P1;HPM_P2
2023/02/10 00:01:18;;;;;;;53.07;21.40;;;;;;;;;;5032406;28;20083;-77
2023/02/10 00:03:44;;;;;;;53.42;21.55;;;;;;;;;;5031456;28;20444;-77
2023/02/10 00:06:11;;;;;;;56.30;21.17;;;;;;;;;;5031367;28;20025;-77
2023/02/10 00:08:37;;;;;;;65.87;23.43;;;;;;;;;;5032502;28;20032;-77
2023/02/10 00:11:06;;;;;;;53.40;22.57;;;;;;;;;;5028984;28;20517;-77
2023/02/10 00:13:32;;;;;;;65.93;21.83;;;;;;;;;;5030853;28;20465;-76
2023/02/10 00:15:59;;;;;;;58.77;22.47;;;;;;;;;;5032197;28;20327;-75
2023/02/10 00:18:25;;;;;;;56.77;21.93;;;;;;;;;;5032570;28;20029;-76
2023/02/10 00:20:51;;;;;;;59.80;23.17;;;;;;;;;;5032103;28;20096;-75
2023/02/10 00:23:17;;;;;;;53.27;22.23;;;;;;;;;;5030749;28;20034;-75
2023/02/10 00:25:42;;;;;;;64.93;24.00;;;;;;;;;;5030826;28;20374;-74
2023/02/10 00:28:08;;;;;;;48.07;20.97;;;;;;;;;;5032054;28;20051;-76
2023/02/10 00:30:34;;;;;;;53.00;21.30;;;;;;;;;;5031645;28;20176;-75
2023/02/10 00:32:59;;;;;;;56.67;24.03;;;;;;;;;;5030479;28;20064;-77
2023/02/10 00:35:25;;;;;;;59.10;23.43;;;;;;;;;;5031298;28;20118;-76
2023/02/10 00:37:50;;;;;;;57.10;24.27;;;;;;;;;;5030805;28;20025;-76
2023/02/10 00:40:17;;;;;;;56.03;21.73;;;;;;;;;;5030709;28;20126;-76
2023/02/10 00:42:43;;;;;;;58.10;22.00;;;;;;;;;;5030888;28;20381;-77
2023/02/10 00:45:09;;;;;;;62.33;23.07;;;;;;;;;;5032035;28;20033;-77
2023/02/10 00:47:34;;;;;;;60.00;24.73;;;;;;;;;;5032509;28;20029;-77
2023/02/10 00:50:00;;;;;;;58.60;24.70;;;;;;;;;;5031492;28;20023;-76
2023/02/10 00:52:26;;;;;;;59.23;23.67;;;;;;;;;;5031520;28;20059;-76
2023/02/10 00:54:51;;;;;;;69.20;25.10;;;;;;;;;;5032561;28;20025;-75
2023/02/10 00:57:17;;;;;;;63.13;24.33;;;;;;;;;;5032866;28;20381;-75
2023/02/10 00:59:42;;;;;;;59.67;24.07;;;;;;;;;;5031045;28;20057;-76
2023/02/10 01:02:08;;;;;;;62.90;23.13;;;;;;;;;;5031171;28;20025;-76
2023/02/10 01:04:33;;;;;;;55.07;23.73;;;;;;;;;;5032964;28;20059;-75
2023/02/10 01:07:00;;;;;;;48.30;22.47;;;;;;;;;;5032355;28;20436;-76
2023/02/10 01:09:25;;;;;;;60.80;24.23;;;;;;;;;;5032326;28;20053;-75
2023/02/10 01:11:52;;;;;;;55.97;23.97;;;;;;;;;;5030608;28;20018;-76
2023/02/10 01:14:18;;;;;;;62.27;22.30;;;;;;;;;;5030433;28;20034;-76
2023/02/10 01:16:43;;;;;;;66.50;26.17;;;;;;;;;;5030541;28;20082;-76
2023/02/10 01:19:09;;;;;;;57.33;24.73;;;;;;;;;;5032187;28;20488;-76
2023/02/10 01:21:38;;;;;;;56.53;24.43;;;;;;;;;;5032491;28;20103;-74
2023/02/10 01:24:04;;;;;;;70.60;26.57;;;;;;;;;;5032628;28;20079;-75
2023/02/10 01:26:30;;;;;;;68.37;25.03;;;;;;;;;;5032522;28;20454;-76
2023/02/10 01:28:55;;;;;;;72.13;25.57;;;;;;;;;;5031937;28;20074;-76
2023/02/10 01:31:21;;;;;;;62.30;23.20;;;;;;;;;;5029857;28;20022;-75
2023/02/10 01:33:50;;;;;;;53.67;24.13;;;;;;;;;;5029913;28;20023;-75
2023/02/10 01:36:18;;;;;;;56.07;23.53;;;;;;;;;;5029449;28;20029;-75
2023/02/10 01:38:45;;;;;;;65.60;23.27;;;;;;;;;;5026178;28;20402;-74
2023/02/10 01:41:13;;;;;;;69.33;24.80;;;;;;;;;;5009178;28;20025;-78
2023/02/10 01:44:03;;;;;;;62.93;24.50;;;;;;;;;;5009695;28;20053;-76
2023/02/10 01:46:34;;;;;;;56.47;23.80;;;;;;;;;;5011034;28;20029;-75
2023/02/10 01:49:10;;;;;;;69.70;23.97;;;;;;;;;;5010845;28;20125;-76
2023/02/10 01:51:45;;;;;;;67.30;25.80;;;;;;;;;;5010051;28;20478;-75
2023/02/10 01:54:16;;;;;;;68.07;25.40;;;;;;;;;;5010766;28;20030;-75
2023/02/10 01:56:42;;;;;;;70.73;24.83;;;;;;;;;;5009233;28;20038;-76
2023/02/10 01:59:08;;;;;;;62.17;25.47;;;;;;;;;;5010709;28;20037;-76
2023/02/10 02:01:34;;;;;;;61.27;25.43;;;;;;;;;;5011001;28;20035;-76
2023/02/10 02:04:01;;;;;;;58.77;23.23;;;;;;;;;;5009160;28;20481;-76
2023/02/10 02:06:27;;;;;;;69.07;26.67;;;;;;;;;;5010742;28;20025;-76
2023/02/10 02:08:53;;;;;;;66.93;25.40;;;;;;;;;;5009134;28;20032;-76
2023/02/10 02:11:49;;;;;;;61.10;22.73;;;;;;;;;;5009065;28;20404;-75
2023/02/10 02:14:39;;;;;;;63.13;23.43;;;;;;;;;;5009243;28;20269;-75
2023/02/10 02:17:33;;;;;;;57.73;22.07;;;;;;;;;;5009002;28;20068;-76
2023/02/10 02:23:13;;;;;;;54.40;22.17;;;;;;;;;;5010253;28;20048;-76
2023/02/10 02:25:53;;;;;;;54.10;21.27;;;;;;;;;;5010721;28;20026;-76
2023/02/10 02:28:28;;;;;;;66.50;23.30;;;;;;;;;;5010206;28;20029;-76
2023/02/10 02:31:02;;;;;;;61.53;23.10;;;;;;;;;;5010144;28;20025;-76
2023/02/10 02:33:36;;;;;;;55.37;21.57;;;;;;;;;;5010346;28;20395;-75
2023/02/10 02:36:10;;;;;;;52.43;21.30;;;;;;;;;;5008900;28;20037;-75
2023/02/10 02:38:42;;;;;;;64.60;22.17;;;;;;;;;;5016129;28;20088;-74
2023/02/10 02:41:09;;;;;;;47.87;19.07;;;;;;;;;;5029810;28;20484;-75
2023/02/10 02:43:36;;;;;;;52.17;21.57;;;;;;;;;;5030236;28;20143;-77
2023/02/10 02:46:12;;;;;;;66.60;21.27;;;;;;;;;;5028480;28;20049;-77
2023/02/10 02:48:46;;;;;;;44.93;19.83;;;;;;;;;;5029400;28;20426;-75
2023/02/10 02:51:50;;;;;;;45.97;19.27;;;;;;;;;;5029410;28;20025;-77
2023/02/10 02:54:25;;;;;;;56.33;19.53;;;;;;;;;;5028223;28;20117;-75
2023/02/10 02:57:15;;;;;;;48.67;19.73;;;;;;;;;;5027239;28;20033;-76
2023/02/10 02:59:49;;;;;;;58.07;21.53;;;;;;;;;;5028549;28;20374;-77
2023/02/10 03:02:19;;;;;;;53.87;22.37;;;;;;;;;;5027941;28;20079;-76
2023/02/10 03:04:45;;;;;;;49.93;20.70;;;;;;;;;;5028417;28;20052;-76
2023/02/10 03:07:11;;;;;;;52.67;20.23;;;;;;;;;;5029280;28;20033;-75
2023/02/10 03:09:38;;;;;;;51.43;20.80;;;;;;;;;;5030114;28;20040;-75
2023/02/10 03:12:04;;;;;;;46.23;21.70;;;;;;;;;;5033093;28;20125;-77
2023/02/10 03:14:29;;;;;;;57.90;20.43;;;;;;;;;;5032403;28;20029;-75
2023/02/10 03:16:55;;;;;;;59.33;22.30;;;;;;;;;;5033406;28;20037;-76
2023/02/10 03:19:20;;;;;;;51.27;20.27;;;;;;;;;;5033470;28;20104;-76
2023/02/10 03:21:47;;;;;;;46.57;21.37;;;;;;;;;;5033299;28;20035;-75
2023/02/10 03:24:13;;;;;;;51.30;19.93;;;;;;;;;;5033304;28;20124;-76
2023/02/10 03:26:38;;;;;;;53.03;19.20;;;;;;;;;;5032418;28;20474;-75
2023/02/10 03:29:05;;;;;;;50.67;19.90;;;;;;;;;;5032201;28;20040;-75
2023/02/10 03:31:31;;;;;;;55.97;22.00;;;;;;;;;;5033506;28;20470;-76
2023/02/10 03:33:57;;;;;;;56.23;20.90;;;;;;;;;;5033610;28;20025;-76
2023/02/10 03:36:22;;;;;;;47.43;20.73;;;;;;;;;;5031955;28;20492;-76
2023/02/10 03:38:48;;;;;;;45.47;20.00;;;;;;;;;;5028466;28;20517;-75
2023/02/10 03:41:14;;;;;;;48.53;21.23;;;;;;;;;;5012084;28;20052;-76
2023/02/10 03:43:41;;;;;;;48.77;19.47;;;;;;;;;;5013751;28;20064;-76
2023/02/10 03:46:08;;;;;;;55.03;20.27;;;;;;;;;;5011938;28;20413;-76
2023/02/10 03:48:34;;;;;;;42.27;20.33;;;;;;;;;;5013727;28;20389;-77
2023/02/10 03:51:02;;;;;;;43.83;19.77;;;;;;;;;;5011871;28;20030;-76
2023/02/10 03:53:29;;;;;;;45.27;20.47;;;;;;;;;;5013320;28;20117;-76
2023/02/10 03:55:54;;;;;;;45.30;19.03;;;;;;;;;;5013422;28;20559;-76
2023/02/10 03:58:20;;;;;;;54.67;20.87;;;;;;;;;;5013050;28;20030;-75
2023/02/10 04:00:45;;;;;;;61.33;20.33;;;;;;;;;;5013330;28;20740;-76
2023/02/10 04:03:11;;;;;;;46.40;20.13;;;;;;;;;;5012846;28;20026;-75
2023/02/10 04:05:36;;;;;;;47.40;19.67;;;;;;;;;;5011682;28;20053;-75
2023/02/10 04:08:02;;;;;;;44.50;18.63;;;;;;;;;;5011420;28;20062;-77
2023/02/10 04:10:28;;;;;;;52.80;20.67;;;;;;;;;;5011784;28;20036;-77
2023/02/10 04:12:53;;;;;;;42.90;19.00;;;;;;;;;;5012977;28;20112;-75
2023/02/10 04:15:19;;;;;;;46.53;20.73;;;;;;;;;;5012765;28;20041;-76
2023/02/10 04:17:44;;;;;;;60.20;20.50;;;;;;;;;;5012518;28;20401;-77
2023/02/10 04:20:14;;;;;;;54.70;19.50;;;;;;;;;;5012470;28;20585;-75
2023/02/10 04:22:40;;;;;;;52.80;19.93;;;;;;;;;;5011117;28;20038;-77
2023/02/10 04:25:06;;;;;;;55.10;20.33;;;;;;;;;;5011088;28;20026;-75
2023/02/10 04:27:32;;;;;;;50.70;19.47;;;;;;;;;;5011696;28;20425;-76
2023/02/10 04:29:57;;;;;;;56.40;19.97;;;;;;;;;;5011591;28;20469;-75
2023/02/10 04:32:23;;;;;;;49.53;19.63;;;;;;;;;;5012166;28;20030;-76
2023/02/10 04:34:48;;;;;;;51.40;18.93;;;;;;;;;;5012938;28;20417;-75
2023/02/10 04:37:14;;;;;;;47.87;17.20;;;;;;;;;;5011041;28;20030;-77
2023/02/10 04:39:39;;;;;;;43.17;19.20;;;;;;;;;;5012436;28;20048;-75
2023/02/10 04:42:05;;;;;;;53.77;21.93;;;;;;;;;;5012114;28;20037;-76
2023/02/10 04:44:31;;;;;;;49.53;18.13;;;;;;;;;;5010521;28;20033;-76
2023/02/10 04:46:56;;;;;;;43.40;18.93;;;;;;;;;;5027426;28;20037;-75
2023/02/10 04:49:23;;;;;;;46.37;18.93;;;;;;;;;;5011734;28;20045;-75
2023/02/10 04:51:48;;;;;;;53.27;19.40;;;;;;;;;;5011948;28;20026;-77
2023/02/10 04:54:14;;;;;;;47.47;19.43;;;;;;;;;;5010809;28;20057;-76
2023/02/10 04:56:39;;;;;;;45.03;18.87;;;;;;;;;;5011252;28;20466;-76
2023/02/10 04:59:05;;;;;;;47.23;19.17;;;;;;;;;;5010492;28;20029;-76
2023/02/10 05:01:31;;;;;;;51.23;18.43;;;;;;;;;;5010374;28;20363;-74
2023/02/10 05:03:56;;;;;;;50.97;19.30;;;;;;;;;;5010385;28;20030;-76
2023/02/10 05:06:22;;;;;;;54.30;20.97;;;;;;;;;;5011690;28;20088;-76
2023/02/10 05:08:49;;;;;;;64.00;24.90;;;;;;;;;;5012017;28;20057;-76
2023/02/10 05:11:15;;;;;;;47.63;19.03;;;;;;;;;;5010192;28;20041;-77
2023/02/10 05:13:42;;;;;;;45.57;18.00;;;;;;;;;;5012119;28;20432;-75
2023/02/10 05:16:10;;;;;;;49.10;19.97;;;;;;;;;;5010013;28;20029;-74
2023/02/10 05:18:36;;;;;;;53.40;19.10;;;;;;;;;;5010218;28;20041;-77
2023/02/10 05:21:02;;;;;;;45.27;17.73;;;;;;;;;;5026560;28;20034;-75
2023/02/10 05:23:29;;;;;;;45.40;18.13;;;;;;;;;;5011711;28;20037;-77
2023/02/10 05:25:54;;;;;;;49.50;20.13;;;;;;;;;;5011756;28;20037;-77
2023/02/10 05:28:20;;;;;;;44.73;19.00;;;;;;;;;;5011721;28;20029;-75
2023/02/10 05:30:48;;;;;;;41.83;18.93;;;;;;;;;;5012006;28;20029;-77
2023/02/10 05:33:14;;;;;;;48.70;19.73;;;;;;;;;;5026173;28;20056;-77
2023/02/10 05:35:39;;;;;;;50.90;19.77;;;;;;;;;;5010292;28;20125;-76
2023/02/10 05:38:05;;;;;;;47.17;20.50;;;;;;;;;;5011135;28;20037;-76
2023/02/10 05:40:31;;;;;;;47.97;18.70;;;;;;;;;;5011290;28;20498;-75
2023/02/10 05:42:56;;;;;;;48.27;19.83;;;;;;;;;;5011356;28;20034;-75
2023/02/10 05:45:22;;;;;;;55.40;19.90;;;;;;;;;;5009851;28;20032;-77
2023/02/10 05:47:48;;;;;;;52.23;21.27;;;;;;;;;;5010140;28;20309;-75
2023/02/10 05:50:14;;;;;;;56.30;19.40;;;;;;;;;;5009788;28;20057;-75
2023/02/10 05:52:40;;;;;;;55.67;19.47;;;;;;;;;;5011239;28;20061;-76
2023/02/10 05:55:06;;;;;;;49.03;19.07;;;;;;;;;;5026660;28;20033;-74
2023/02/10 05:57:32;;;;;;;42.17;18.77;;;;;;;;;;5011041;28;20034;-77
2023/02/10 05:59:57;;;;;;;50.83;21.20;;;;;;;;;;5010594;28;20040;-75
2023/02/10 06:02:24;;;;;;;47.43;19.97;;;;;;;;;;5011146;28;20033;-75
2023/02/10 06:04:49;;;;;;;47.07;20.97;;;;;;;;;;5011117;28;20029;-75
2023/02/10 06:07:16;;;;;;;48.53;18.10;;;;;;;;;;5010789;28;20038;-75
2023/02/10 06:09:42;;;;;;;48.03;20.07;;;;;;;;;;5009076;28;20026;-77
2023/02/10 06:12:08;;;;;;;56.07;19.70;;;;;;;;;;5021088;28;20417;-76
2023/02/10 06:14:36;;;;;;;40.93;18.67;;;;;;;;;;5029733;28;20529;-76
2023/02/10 06:17:01;;;;;;;45.07;19.17;;;;;;;;;;5029578;28;20033;-80
2023/02/10 06:19:27;;;;;;;48.07;18.37;;;;;;;;;;5016786;28;20373;-77
2023/02/10 06:21:52;;;;;;;45.97;20.53;;;;;;;;;;5029873;28;20033;-76
2023/02/10 06:24:18;;;;;;;47.70;20.87;;;;;;;;;;5030066;28;20029;-79
2023/02/10 06:26:43;;;;;;;51.30;22.27;;;;;;;;;;5029419;28;20036;-77
2023/02/10 06:29:09;;;;;;;54.23;21.20;;;;;;;;;;5028258;28;20021;-76
2023/02/10 06:31:35;;;;;;;54.07;20.97;;;;;;;;;;5033169;28;20029;-76
2023/02/10 06:34:00;;;;;;;54.40;19.63;;;;;;;;;;5029280;28;20021;-75
2023/02/10 06:36:26;;;;;;;43.57;19.23;;;;;;;;;;5030433;28;20381;-76
2023/02/10 06:38:51;;;;;;;47.00;19.43;;;;;;;;;;5021312;28;20758;-77
2023/02/10 06:41:17;;;;;;;47.57;20.77;;;;;;;;;;5015592;28;20026;-78
2023/02/10 06:43:47;;;;;;;57.83;23.63;;;;;;;;;;5019044;28;20493;-75
2023/02/10 06:46:12;;;;;;;54.03;21.07;;;;;;;;;;5024237;28;20504;-78
2023/02/10 06:48:38;;;;;;;47.63;20.57;;;;;;;;;;5032541;28;20071;-76
2023/02/10 06:51:04;;;;;;;52.50;20.57;;;;;;;;;;5033057;28;20033;-77
2023/02/10 06:53:29;;;;;;;49.10;19.47;;;;;;;;;;5034997;28;20017;-77
2023/02/10 06:55:57;;;;;;;48.00;20.43;;;;;;;;;;5035751;28;20501;-76
2023/02/10 06:58:22;;;;;;;49.47;21.00;;;;;;;;;;5014449;28;20034;-76
2023/02/10 07:00:48;;;;;;;50.47;21.83;;;;;;;;;;5030008;28;20474;-76
2023/02/10 07:03:14;;;;;;;47.80;20.20;;;;;;;;;;5017452;28;20097;-77
2023/02/10 07:05:40;;;;;;;51.50;20.77;;;;;;;;;;5037990;28;20029;-75
2023/02/10 07:08:06;;;;;;;46.03;20.17;;;;;;;;;;5029992;28;20037;-76
2023/02/10 07:10:32;;;;;;;59.93;22.67;;;;;;;;;;5029033;28;20056;-77
2023/02/10 07:12:58;;;;;;;50.03;21.33;;;;;;;;;;5035516;28;20049;-76
2023/02/10 07:15:25;;;;;;;55.93;21.70;;;;;;;;;;5037902;28;20094;-76
2023/02/10 07:17:51;;;;;;;54.27;22.73;;;;;;;;;;5031768;28;20045;-75
2023/02/10 07:20:18;;;;;;;53.97;20.97;;;;;;;;;;5020907;28;20111;-77
2023/02/10 07:22:45;;;;;;;54.83;21.43;;;;;;;;;;5030512;28;20422;-77
2023/02/10 07:25:11;;;;;;;56.50;21.00;;;;;;;;;;5016431;28;20026;-77
2023/02/10 07:27:37;;;;;;;46.10;20.23;;;;;;;;;;5036020;28;20401;-77
2023/02/10 07:30:03;;;;;;;49.70;20.37;;;;;;;;;;5034268;28;20401;-77
2023/02/10 07:32:28;;;;;;;50.23;20.20;;;;;;;;;;5026431;28;20041;-77
2023/02/10 07:34:54;;;;;;;58.57;22.40;;;;;;;;;;5033851;28;20033;-78
2023/02/10 07:37:19;;;;;;;68.17;23.07;;;;;;;;;;5035161;28;20037;-75
2023/02/10 07:39:45;;;;;;;53.87;21.73;;;;;;;;;;5028511;28;20139;-78
2023/02/10 07:42:10;;;;;;;49.43;20.97;;;;;;;;;;5030584;28;20040;-78
2023/02/10 07:44:36;;;;;;;49.40;20.77;;;;;;;;;;5031754;28;20044;-78
2023/02/10 07:47:02;;;;;;;53.00;20.73;;;;;;;;;;5017624;28;20029;-78
2023/02/10 07:49:28;;;;;;;55.17;22.40;;;;;;;;;;5031384;28;20044;-77
2023/02/10 07:51:55;;;;;;;48.40;20.93;;;;;;;;;;5026765;28;20395;-77
2023/02/10 07:54:22;;;;;;;52.50;23.43;;;;;;;;;;5036034;28;20029;-79
2023/02/10 07:56:47;;;;;;;53.10;23.00;;;;;;;;;;5029714;28;20029;-78
2023/02/10 07:59:13;;;;;;;53.63;22.20;;;;;;;;;;5024909;28;20035;-79
2023/02/10 08:01:42;;;;;;;62.67;22.37;;;;;;;;;;5025384;28;20032;-79
2023/02/10 08:04:11;;;;;;;53.40;22.37;;;;;;;;;;5024893;28;20474;-77
2023/02/10 08:06:36;;;;;;;53.13;21.47;;;;;;;;;;5031539;28;20056;-78
2023/02/10 08:09:03;;;;;;;51.10;21.93;;;;;;;;;;5032067;28;20036;-76
2023/02/10 08:11:28;;;;;;;56.10;21.80;;;;;;;;;;5028994;28;20862;-79
2023/02/10 08:13:54;;;;;;;53.37;21.93;;;;;;;;;;5027308;28;20045;-77
2023/02/10 08:16:20;;;;;;;48.27;19.93;;;;;;;;;;5023101;28;20072;-79
2023/02/10 08:18:45;;;;;;;59.70;22.73;;;;;;;;;;5017790;28;20036;-76
2023/02/10 08:21:11;;;;;;;48.43;21.00;;;;;;;;;;5022456;28;20033;-78
2023/02/10 08:23:37;;;;;;;48.97;22.10;;;;;;;;;;5022998;28;20041;-76
2023/02/10 08:26:04;;;;;;;51.30;22.00;;;;;;;;;;5038761;28;20033;-77
2023/02/10 08:28:30;;;;;;;56.50;22.70;;;;;;;;;;5029769;28;20044;-77
2023/02/10 08:31:00;;;;;;;58.10;22.00;;;;;;;;;;5022751;28;20029;-77
2023/02/10 08:33:26;;;;;;;60.40;21.93;;;;;;;;;;5022928;28;20060;-77
2023/02/10 08:35:52;;;;;;;59.70;22.73;;;;;;;;;;5020990;28;20037;-78
2023/02/10 08:38:17;;;;;;;61.63;23.10;;;;;;;;;;5021615;28;20092;-77
2023/02/10 08:40:43;;;;;;;53.80;22.97;;;;;;;;;;5031269;28;20032;-77
2023/02/10 08:43:08;;;;;;;52.73;21.43;;;;;;;;;;5027609;28;20033;-78
2023/02/10 08:45:34;;;;;;;49.77;20.17;;;;;;;;;;5022060;28;20060;-77
2023/02/10 08:48:00;;;;;;;54.60;21.47;;;;;;;;;;5016729;28;20028;-78
2023/02/10 08:50:27;;;;;;;50.97;21.20;;;;;;;;;;5021119;28;20030;-77
2023/02/10 08:52:53;;;;;;;53.47;21.57;;;;;;;;;;5030698;28;20029;-77
2023/02/10 08:55:18;;;;;;;58.87;22.60;;;;;;;;;;5014057;28;20068;-76
2023/02/10 08:57:44;;;;;;;50.47;21.63;;;;;;;;;;5029893;28;20047;-77
2023/02/10 09:00:10;;;;;;;55.63;22.10;;;;;;;;;;5029752;28;20025;-77
2023/02/10 09:02:36;;;;;;;52.37;22.63;;;;;;;;;;5018010;28;20040;-77
2023/02/10 09:05:03;;;;;;;43.40;19.17;;;;;;;;;;5027404;28;20029;-76
2023/02/10 09:07:28;;;;;;;48.47;21.10;;;;;;;;;;5025844;28;20095;-78
2023/02/10 09:09:54;;;;;;;50.80;20.23;;;;;;;;;;5028702;28;20439;-76
2023/02/10 09:12:19;;;;;;;59.23;21.47;;;;;;;;;;5015652;28;20423;-77
2023/02/10 09:14:45;;;;;;;55.27;22.97;;;;;;;;;;5014916;28;20520;-78
2023/02/10 09:17:11;;;;;;;53.30;22.30;;;;;;;;;;5023567;28;20033;-76
2023/02/10 09:19:38;;;;;;;50.77;22.13;;;;;;;;;;5023381;28;20026;-77
2023/02/10 09:22:05;;;;;;;49.60;21.57;;;;;;;;;;5030217;28;20550;-76
2023/02/10 09:24:32;;;;;;;53.53;22.27;;;;;;;;;;5027260;28;20044;-76
2023/02/10 09:26:58;;;;;;;45.03;20.23;;;;;;;;;;5044307;28;20034;-77
2023/02/10 09:29:24;;;;;;;48.10;20.80;;;;;;;;;;5022612;28;20022;-79
2023/02/10 09:31:50;;;;;;;44.57;20.00;;;;;;;;;;5014431;28;20033;-75
2023/02/10 09:34:16;;;;;;;46.77;20.03;;;;;;;;;;5022758;28;20021;-77
2023/02/10 09:36:41;;;;;;;47.70;20.90;;;;;;;;;;5021974;28;20098;-78
2023/02/10 09:39:07;;;;;;;49.43;21.20;;;;;;;;;;5023174;28;20414;-77
2023/02/10 09:41:38;;;;;;;48.77;20.50;;;;;;;;;;5029624;28;20029;-76
2023/02/10 09:44:30;;;;;;;54.37;20.90;;;;;;;;;;5030989;28;20309;-77
2023/02/10 09:47:11;;;;;;;53.92;21.45;;;;;;;;;;5024362;28;20390;-76
2023/02/10 09:49:58;;;;;;;52.63;20.23;;;;;;;;;;5024302;28;20473;-78
2023/02/10 09:52:56;;;;;;;49.93;22.53;;;;;;;;;;5023909;28;20060;-77
2023/02/10 09:55:33;;;;;;;52.63;21.53;;;;;;;;;;4992904;28;20049;-78
2023/02/10 09:58:20;;;;;;;44.80;19.07;;;;;;;;;;5017851;28;20026;-79
2023/02/10 10:00:48;;;;;;;50.70;22.10;;;;;;;;;;5019845;28;20644;-78
2023/02/10 10:03:21;;;;;;;47.40;19.90;;;;;;;;;;5019051;28;20028;-77
2023/02/10 10:06:04;;;;;;;52.93;20.77;;;;;;;;;;5007871;28;20037;-78
2023/02/10 10:08:36;;;;;;;48.57;21.80;;;;;;;;;;5018461;28;20478;-76
2023/02/10 10:11:06;;;;;;;49.63;18.92;;;;;;;;;;5026574;28;20241;-76
2023/02/10 10:13:32;;;;;;;52.63;21.70;;;;;;;;;;5024900;28;20033;-78
2023/02/10 10:16:13;;;;;;;56.43;22.43;;;;;;;;;;5027843;28;20076;-76
2023/02/10 10:18:41;;;;;;;47.73;21.77;;;;;;;;;;5022704;28;20033;-77
2023/02/10 10:21:20;;;;;;;50.13;22.07;;;;;;;;;;5019871;28;20497;-76
2023/02/10 10:23:51;;;;;;;58.87;23.20;;;;;;;;;;5017152;28;20135;-77
2023/02/10 10:26:35;;;;;;;52.47;20.80;;;;;;;;;;5026848;28;20377;-78
2023/02/10 10:29:20;;;;;;;51.77;21.43;;;;;;;;;;5027470;28;20262;-75
2023/02/10 10:31:48;;;;;;;40.93;20.53;;;;;;;;;;5016790;28;20040;-76
2023/02/10 10:34:17;;;;;;;46.27;20.93;;;;;;;;;;5027841;28;20057;-77
2023/02/10 10:36:45;;;;;;;48.37;19.73;;;;;;;;;;5026874;28;20281;-77
2023/02/10 10:39:22;;;;;;;48.10;21.20;;;;;;;;;;5026081;28;20441;-77
2023/02/10 10:41:49;;;;;;;51.60;24.67;;;;;;;;;;5026296;28;20037;-77
2023/02/10 10:44:17;;;;;;;53.37;23.03;;;;;;;;;;5021279;28;20116;-79
2023/02/10 10:47:08;;;;;;;47.13;20.80;;;;;;;;;;5027561;28;20049;-77
2023/02/10 10:49:38;;;;;;;43.80;19.67;;;;;;;;;;5024872;28;20408;-79
2023/02/10 10:52:28;;;;;;;48.67;20.77;;;;;;;;;;5028069;28;20125;-77
2023/02/10 10:54:54;;;;;;;53.87;21.70;;;;;;;;;;5021822;28;20021;-78
2023/02/10 10:57:20;;;;;;;46.77;20.17;;;;;;;;;;5017693;28;20029;-78
2023/02/10 11:00:22;;;;;;;52.13;22.40;;;;;;;;;;5022466;28;20026;-75
2023/02/10 11:03:00;;;;;;;56.40;23.57;;;;;;;;;;4999900;28;20442;-77
2023/02/10 11:05:33;;;;;;;51.83;20.57;;;;;;;;;;5020020;28;20573;-78
2023/02/10 11:08:00;;;;;;;48.80;22.60;;;;;;;;;;5027884;28;20036;-76
2023/02/10 11:10:51;;;;;;;50.47;21.33;;;;;;;;;;5023775;28;20026;-81
2023/02/10 11:13:20;;;;;;;49.13;21.50;;;;;;;;;;5032764;28;20036;-77
2023/02/10 11:15:47;;;;;;;47.20;21.40;;;;;;;;;;5022915;28;20481;-77
2023/02/10 11:18:20;;;;;;;50.00;22.03;;;;;;;;;;5015591;28;20121;-77
2023/02/10 11:21:02;;;;;;;52.87;21.80;;;;;;;;;;5012858;28;20033;-78
2023/02/10 11:23:29;;;;;;;53.50;22.30;;;;;;;;;;5020578;28;20551;-77
2023/02/10 11:26:01;;;;;;;49.83;21.53;;;;;;;;;;5020835;28;20041;-76
2023/02/10 11:28:32;;;;;;;53.90;23.47;;;;;;;;;;5020264;28;20436;-77
2023/02/10 11:31:03;;;;;;;56.83;21.60;;;;;;;;;;5029988;28;20438;-76
2023/02/10 11:33:32;;;;;;;45.93;22.57;;;;;;;;;;5028658;28;20021;-77
2023/02/10 11:36:07;;;;;;;55.03;22.17;;;;;;;;;;5013100;28;20037;-77
2023/02/10 11:38:34;;;;;;;48.63;22.63;;;;;;;;;;5023075;28;20407;-77
2023/02/10 11:41:08;;;;;;;45.53;20.27;;;;;;;;;;5026888;28;20029;-76
2023/02/10 11:43:45;;;;;;;49.73;21.30;;;;;;;;;;5025026;28;20403;-78
2023/02/10 11:46:24;;;;;;;53.43;21.07;;;;;;;;;;5008912;28;20033;-78
2023/02/10 11:48:58;;;;;;;53.33;22.17;;;;;;;;;;5024039;28;20155;-77
2023/02/10 11:51:25;;;;;;;52.30;22.67;;;;;;;;;;5021749;28;20486;-77
2023/02/10 11:53:51;;;;;;;60.23;23.80;;;;;;;;;;5026763;28;20028;-77
2023/02/10 11:59:56;;;;;;;59.95;22.20;;;;;;;;;;5025833;28;20068;-77
2023/02/10 12:02:43;;;;;;;60.00;23.47;;;;;;;;;;5011853;28;20030;-77
2023/02/10 12:05:13;;;;;;;56.17;20.73;;;;;;;;;;5022288;28;20029;-79
2023/02/10 12:08:04;;;;;;;48.87;20.10;;;;;;;;;;5018727;28;20270;-76
2023/02/10 12:10:55;;;;;;;46.30;20.67;;;;;;;;;;5025537;28;20049;-76
2023/02/10 12:13:40;;;;;;;53.80;21.00;;;;;;;;;;5019680;28;20409;-77
2023/02/10 12:16:22;;;;;;;54.57;23.73;;;;;;;;;;5021842;28;20080;-79
2023/02/10 12:18:57;;;;;;;46.85;20.92;;;;;;;;;;5026346;28;20478;-78
2023/02/10 12:21:46;;;;;;;48.73;22.23;;;;;;;;;;5028403;28;20033;-78
2023/02/10 12:24:30;;;;;;;50.80;21.90;;;;;;;;;;5010802;28;20045;-74
2023/02/10 12:27:25;;;;;;;59.97;21.67;;;;;;;;;;5026234;28;20033;-78
2023/02/10 12:30:33;;;;;;;46.13;20.70;;;;;;;;;;5002736;28;20076;-78
2023/02/10 12:33:23;;;;;;;49.00;20.90;;;;;;;;;;5017882;28;20037;-76
2023/02/10 12:36:01;;;;;;;54.63;22.17;;;;;;;;;;5026408;28;20448;-76
2023/02/10 12:38:48;;;;;;;52.40;21.57;;;;;;;;;;5022547;28;20413;-76
2023/02/10 12:41:35;;;;;;;50.43;22.23;;;;;;;;;;5024681;28;20041;-77
2023/02/10 12:44:42;;;;;;;49.53;21.13;;;;;;;;;;5026708;28;20053;-77
2023/02/10 12:47:10;;;;;;;50.87;23.20;;;;;;;;;;5028307;28;20465;-76
2023/02/10 12:50:07;;;;;;;48.60;21.83;;;;;;;;;;5025305;28;20175;-75
2023/02/10 12:52:42;;;;;;;48.43;22.03;;;;;;;;;;5025498;28;20021;-77
2023/02/10 12:55:15;;;;;;;50.50;20.97;;;;;;;;;;5026382;28;20029;-78
2023/02/10 12:57:49;;;;;;;;;;;;;;;;;;5030441;28;20041;-76
2023/02/10 13:00:23;;;;;;;51.33;20.83;;;;;;;;;;5026802;28;19952;-78
2023/02/10 13:03:00;;;;;;;53.07;22.43;;;;;;;;;;5026996;28;20033;-76
2023/02/10 13:05:44;;;;;;;47.30;22.07;;;;;;;;;;5027047;28;20040;-77
2023/02/10 13:08:16;;;;;;;45.67;20.23;;;;;;;;;;5028298;28;20026;-78
2023/02/10 13:10:47;;;;;;;50.85;20.77;;;;;;;;;;5020160;28;20078;-78
2023/02/10 13:13:18;;;;;;;52.17;21.63;;;;;;;;;;5014861;28;20099;-75
2023/02/10 13:16:12;;;;;;;44.97;19.50;;;;;;;;;;5024748;28;20033;-77
2023/02/10 13:19:06;;;;;;;50.37;21.93;;;;;;;;;;5019673;28;20037;-78
2023/02/10 13:22:07;;;;;;;53.50;22.20;;;;;;;;;;5013625;28;20029;-77
2023/02/10 13:24:42;;;;;;;56.13;22.02;;;;;;;;;;5006666;28;20057;-77
2023/02/10 13:27:33;;;;;;;56.17;21.77;;;;;;;;;;5021605;28;20195;-78
2023/02/10 13:30:16;;;;;;;50.43;20.93;;;;;;;;;;5019265;28;20033;-76
2023/02/10 13:33:22;;;;;;;51.17;22.27;;;;;;;;;;5016188;28;20033;-77
2023/02/10 13:35:49;;;;;;;54.20;23.03;;;;;;;;;;5017301;28;20088;-76
2023/02/10 13:38:18;;;;;;;45.73;20.80;;;;;;;;;;5018182;28;20135;-78
2023/02/10 13:40:50;;;;;;;50.27;20.73;;;;;;;;;;5023867;28;20589;-78
2023/02/10 13:43:30;;;;;;;49.60;22.07;;;;;;;;;;5022308;28;20111;-76
2023/02/10 13:45:56;;;;;;;48.37;19.97;;;;;;;;;;5023730;28;20029;-76
2023/02/10 13:48:28;;;;;;;49.80;21.07;;;;;;;;;;5024991;28;20032;-76
2023/02/10 13:50:59;;;;;;;49.30;20.97;;;;;;;;;;5023337;28;20071;-76
2023/02/10 13:53:34;;;;;;;45.80;19.80;;;;;;;;;;5015839;28;20038;-76
2023/02/10 13:56:16;;;;;;;48.97;21.33;;;;;;;;;;5022914;28;20474;-75
2023/02/10 13:59:07;;;;;;;45.55;19.35;;;;;;;;;;5010670;28;20130;-76
2023/02/10 14:01:42;;;;;;;51.37;20.57;;;;;;;;;;5023744;28;20152;-75
2023/02/10 14:04:16;;;;;;;50.87;21.03;;;;;;;;;;5023201;28;20033;-78
2023/02/10 14:06:47;;;;;;;43.33;19.27;;;;;;;;;;5027838;28;20029;-75
2023/02/10 14:09:29;;;;;;;45.53;20.27;;;;;;;;;;5015073;28;20037;-76
2023/02/10 14:11:56;;;;;;;55.40;19.50;;;;;;;;;;5024604;28;20095;-77
2023/02/10 14:14:30;;;;;;;47.30;20.43;;;;;;;;;;5025205;28;20021;-77
2023/02/10 14:17:20;;;;;;;49.40;21.27;;;;;;;;;;5024191;28;20030;-77
2023/02/10 14:19:48;;;;;;;57.67;21.30;;;;;;;;;;5018311;28;20063;-79
2023/02/10 14:22:35;;;;;;;49.23;21.07;;;;;;;;;;5024678;28;20069;-79
2023/02/10 14:25:28;;;;;;;51.70;19.13;;;;;;;;;;5009544;28;20061;-80
2023/02/10 14:27:54;;;;;;;44.10;19.50;;;;;;;;;;5026565;28;20160;-77
2023/02/10 14:30:31;;;;;;;52.80;22.07;;;;;;;;;;5038765;28;20033;-77
2023/02/10 14:32:57;;;;;;;53.27;20.33;;;;;;;;;;5018231;28;20033;-75
2023/02/10 14:35:25;;;;;;;46.70;19.80;;;;;;;;;;5025473;28;20036;-77
2023/02/10 14:37:53;;;;;;;57.43;19.77;;;;;;;;;;5027548;28;20020;-75
2023/02/10 14:40:22;;;;;;;47.70;21.00;;;;;;;;;;5009725;28;20784;-76
2023/02/10 14:42:48;;;;;;;36.20;17.43;;;;;;;;;;5028064;28;20017;-76
2023/02/10 14:45:23;;;;;;;38.47;17.00;;;;;;;;;;5019084;28;20118;-76